LKPR - Praha Ruzyně, Česká republika
Vzdálenost od této stanice: ZSZ 177km
Aktualizováno: 24.02.2018 05:00
 
Teplota vzduchu: -10°C
Chlad větru: -15°C
Vítr: SZ 9 km/h
Rosný bod: -12°C
Vlhkost vzduchu: 85%
Tlak vzduchu: 1022 hPa
Oblačnost: oblačno
Viditelnost: 7 km
2018/02/24 04:00 LKPR 240400Z 31005KT 7000 NSC M10/M12 Q1022 NOSIG
LKTB - Brno Tuřany, Česká republika
Vzdálenost od této stanice: VJV 28km
Aktualizováno: 24.02.2018 05:00
 
Teplota vzduchu: -7°C
Chlad větru: -12°C
Vítr: SSZ 11 km/h
Rosný bod: -11°C
Vlhkost vzduchu: 73%
Tlak vzduchu: 1021 hPa
Stav počasí: Jasno
Oblačnost: jasná obloha
Viditelnost: více než 10 km
2018/02/24 04:00 LKTB 240400Z 33006KT CAVOK M07/M11 Q1021 NOSIG
 
LKKV - Karlovy Vary, Česká republika
Vzdálenost od této stanice: SZ 268km
Aktualizováno: 24.02.2018 05:00
 
Teplota vzduchu: -11°C
Chlad větru: -17°C
Vítr: V 11 km/h
Rosný bod: -13°C
Vlhkost vzduchu: 85%
Tlak vzduchu: 1020 hPa
Oblačnost: oblačno
Viditelnost: 8 km
2018/02/24 04:00 LKKV 240400Z 08006KT 8000 NSC M11/M13 Q1020
LKMT - Ostrava Mošnov, Česká republika
Vzdálenost od této stanice: VSV 136km
Aktualizováno: 24.02.2018 05:00
 
Teplota vzduchu: -10°C
Chlad větru: -15°C
Vítr: SV 9 km/h
Rosný bod: -12°C
Vlhkost vzduchu: 85%
Tlak vzduchu: 1022 hPa
Oblačnost: oblačno
Viditelnost: 6 km
2018/02/24 04:00 LKMT 240400Z 04005KT 6000 NSC M10/M12 Q1022 R04/41//95 NOSIG
 
LKPD - Pardubice, Česká republika
Vzdálenost od této stanice: SSZ 97km
Aktualizováno: 24.02.2018 05:00
 
Teplota vzduchu: -7°C
Vítr: proměnlivý 4 km/h
Rosný bod: -11°C
Vlhkost vzduchu: 73%
Tlak vzduchu: 1022 hPa
Stav počasí: Jasno
Oblačnost: jasná obloha
Viditelnost: více než 10 km
2018/02/24 04:00 LKPD 240400Z VRB02KT CAVOK M07/M11 Q1022 NOSIG
LKKB - Praha Kbely, Česká republika
Vzdálenost od této stanice: SZ 162km
Aktualizováno: 24.02.2018 05:00
 
Teplota vzduchu: -8°C
Vítr: ZSZ 6 km/h
Rosný bod: -11°C
Vlhkost vzduchu: 79%
Tlak vzduchu: 1023 hPa
Stav počasí: Jasno
Oblačnost: jasná obloha
Viditelnost: více než 10 km
2018/02/24 04:00 LKKB 240400Z 30003KT 220V350 CAVOK M08/M11 Q1023 NOSIG
 
LKCV - Čáslav, Česká republika
Vzdálenost od této stanice: SZ 103km
Aktualizováno: 24.02.2018 05:00
 
Teplota vzduchu: -7°C
Vítr: SSV 6 km/h
Rosný bod: -11°C
Vlhkost vzduchu: 73%
Tlak vzduchu: 1023 hPa
Stav počasí: Jasno
Oblačnost: jasná obloha
Viditelnost: více než 10 km
2018/02/24 04:00 LKCV 240400Z 03003KT CAVOK M07/M11 Q1023 NOSIG
LKNA - Náměšť n. Osl., Česká republika
Vzdálenost od této stanice: ZJZ 19km
Aktualizováno: 24.02.2018 05:00
 
Teplota vzduchu: -10°C
Chlad větru: -16°C
Vítr: SSZ 11 km/h
Rosný bod: -12°C
Vlhkost vzduchu: 85%
Tlak vzduchu: 1019 hPa
Stav počasí: Jasno
Oblačnost: jasná obloha
Viditelnost: více než 10 km
2018/02/24 04:00 LKNA 240400Z 33006KT CAVOK M10/M12 Q1019 NOSIG
 
LKLN - Plzeň Líně, Česká republika
Vzdálenost od této stanice: Z 228km
Aktualizováno: 24.02.2018 05:00
 
Teplota vzduchu: -9°C
Vítr: proměnlivý 4 km/h
Rosný bod: -11°C
Vlhkost vzduchu: 86%
Tlak vzduchu: 1022 hPa
Stav počasí: opar
Oblačnost: jasno
Viditelnost: 5 km
2018/02/24 04:00 LKLN 240400Z AUTO VRB02KT 5000 BR NCD M09/M11 Q1022
LKVO - Vodochody, Česká republika
Vzdálenost od této stanice: SZ 177km
Aktualizováno: 23.02.2018 16:00
Není aktuální
 
Teplota vzduchu: 0°C
Chlad větru: -4°C
Vítr: SSV 13 km/h
Rosný bod: -9°C
Vlhkost vzduchu: 51%
Tlak vzduchu: 1020 hPa
Stav počasí: Jasno
Oblačnost: jasná obloha
Viditelnost: více než 10 km
2018/02/23 15:00 LKVO 231500Z 03007KT 320V090 CAVOK M00/M09 Q1020